< < Back
Terminal Aerodrome Forecast


Current Version              Previous Versions:   1  2  3  4  5  6  7  8  9  

Terminal Aerodrome Forecast

586
FTUS44 KOHX 281700
TAFBNA
TAF
KBNA 281731Z 2818/2918 35010KT P6SM SCT250
     FM290000 VRB02KT P6SM SCT250
     FM291400 17008G15KT P6SM SCT250=



Latest METAR

655
SAUS70 KWBC 282200 RRH
MTRBNA
METAR KBNA 282153Z 02007KT 10SM CLR 08/M12 A3025 RMK AO2 SLP247
T00831122


USA.gov is the U.S. government's official web portal to all federal, state and local government web resources and services.